Time;durP1;ratioP1;P1;durP2;ratioP2;P2;SDS_P1;SDS_P2;PMS_P1;PMS_P2;Temp;Humidity;BMP_temperature;BMP_pressure;BME280_temperature;BME280_humidity;BME280_pressure;Samples;Min_cycle;Max_cycle;Signal;HPM_P1;HPM_P2
2021/12/13 00:00:10;;;;;;;105.50;32.83;;;10.40;99.90;;;;;;5101032;27;20611;-64
2021/12/13 00:03:00;;;;;;;121.63;35.55;;;10.40;99.90;;;;;;5099208;27;20047;-64
2021/12/13 00:05:47;;;;;;;110.85;35.05;;;10.50;99.90;;;;;;5100224;27;20051;-64
2021/12/13 00:08:18;;;;;;;97.57;32.72;;;10.40;99.90;;;;;;5100239;27;20109;-64
2021/12/13 00:10:48;;;;;;;114.93;34.03;;;10.40;99.90;;;;;;5103365;27;20080;-64
2021/12/13 00:13:23;;;;;;;101.28;35.00;;;10.40;99.90;;;;;;5099404;27;20055;-64
2021/12/13 00:15:54;;;;;;;101.82;33.83;;;10.40;99.90;;;;;;5099834;27;20742;-64
2021/12/13 00:18:46;;;;;;;90.30;32.85;;;10.40;99.90;;;;;;5104230;27;20069;-64
2021/12/13 00:21:20;;;;;;;101.07;36.22;;;10.40;99.90;;;;;;5099671;27;20051;-64
2021/12/13 00:23:54;;;;;;;107.07;36.90;;;10.40;99.90;;;;;;5132691;27;20039;-64
2021/12/13 00:26:27;;;;;;;100.70;34.75;;;10.40;99.90;;;;;;5102916;27;20048;-64
2021/12/13 00:28:54;;;;;;;88.45;35.00;;;10.40;99.90;;;;;;5099002;28;20080;-64
2021/12/13 00:31:47;;;;;;;101.03;35.60;;;10.40;99.90;;;;;;5100401;28;20136;-64
2021/12/13 00:34:40;;;;;;;91.05;33.60;;;10.40;99.90;;;;;;5096692;27;20485;-64
2021/12/13 00:37:10;;;;;;;95.18;32.90;;;10.40;99.90;;;;;;5100398;28;20052;-64
2021/12/13 00:40:01;;;;;;;92.10;33.63;;;10.40;99.90;;;;;;5097422;27;20532;-64
2021/12/13 00:42:33;;;;;;;97.05;35.38;;;10.40;99.90;;;;;;5103680;27;20051;-64
2021/12/13 00:45:05;;;;;;;84.07;31.67;;;10.40;99.90;;;;;;5132874;27;20043;-64
2021/12/13 00:47:34;;;;;;;84.80;33.47;;;10.50;99.90;;;;;;5130521;27;20048;-64
2021/12/13 00:50:11;;;;;;;90.00;34.90;;;10.40;99.90;;;;;;5095456;28;20044;-64
2021/12/13 00:52:39;;;;;;;86.10;34.15;;;10.50;99.90;;;;;;5098223;28;20057;-64
2021/12/13 00:55:18;;;;;;;89.82;34.88;;;10.40;99.90;;;;;;5097427;27;20096;-64
2021/12/13 00:58:04;;;;;;;92.65;36.22;;;10.40;99.90;;;;;;5101126;27;20035;-64
2021/12/13 01:00:34;;;;;;;91.47;35.35;;;10.40;99.90;;;;;;5131251;27;20051;-64
2021/12/13 01:03:14;;;;;;;94.95;36.40;;;10.40;99.90;;;;;;5100255;27;20561;-64
2021/12/13 01:05:46;;;;;;;82.82;33.17;;;10.40;99.90;;;;;;5098712;28;20042;-64
2021/12/13 01:08:51;;;;;;;101.25;33.58;;;10.40;99.90;;;;;;5115842;27;20367;-64
2021/12/13 01:11:48;;;;;;;71.35;29.05;;;10.40;99.90;;;;;;5097473;27;20035;-64
2021/12/13 01:14:24;;;;;;;56.10;26.15;;;10.40;99.90;;;;;;5098772;28;20135;-64
2021/12/13 01:17:07;;;;;;;57.20;24.77;;;10.50;99.90;;;;;;5100395;28;20152;-64
2021/12/13 01:20:16;;;;;;;55.97;24.95;;;10.50;99.90;;;;;;5097695;28;20126;-64
2021/12/13 01:22:51;;;;;;;47.08;23.13;;;10.50;99.90;;;;;;5093625;28;20441;-64
2021/12/13 01:26:00;;;;;;;43.45;21.42;;;10.50;99.90;;;;;;5129043;27;20043;-64
2021/12/13 01:28:32;;;;;;;44.20;21.40;;;10.50;99.90;;;;;;5095672;28;20036;-64
2021/12/13 01:31:09;;;;;;;42.85;21.30;;;10.40;99.90;;;;;;5131675;27;20123;-64
2021/12/13 01:33:41;;;;;;;39.05;18.85;;;10.40;99.90;;;;;;5096944;27;20101;-64
2021/12/13 01:36:09;;;;;;;40.38;19.30;;;10.40;99.90;;;;;;5129394;27;20047;-64
2021/12/13 01:38:41;;;;;;;41.55;20.95;;;10.50;99.90;;;;;;5097834;27;20062;-64
2021/12/13 01:41:21;;;;;;;38.78;20.48;;;10.50;99.90;;;;;;5101507;27;20075;-64
2021/12/13 01:43:53;;;;;;;34.42;19.58;;;10.50;99.90;;;;;;5096877;27;20042;-64
2021/12/13 01:46:20;;;;;;;40.35;19.92;;;10.50;99.90;;;;;;5097657;27;20050;-64
2021/12/13 01:48:48;;;;;;;35.63;20.60;;;10.50;99.90;;;;;;5098471;27;20693;-64
2021/12/13 01:51:20;;;;;;;33.72;20.65;;;10.50;99.90;;;;;;5099074;27;20119;-64
2021/12/13 01:53:56;;;;;;;36.28;20.52;;;10.40;99.90;;;;;;5095765;28;20122;-64
2021/12/13 02:02:10;;;;;;;48.42;25.05;;;10.50;99.90;;;;;;5097773;28;20436;-64
2021/12/13 02:04:36;;;;;;;41.63;23.83;;;10.50;99.90;;;;;;5128335;27;20079;-64
2021/12/13 02:07:03;;;;;;;45.15;24.63;;;10.50;99.90;;;;;;5099530;27;20036;-64
2021/12/13 02:09:41;;;;;;;49.97;26.48;;;10.50;99.90;;;;;;5095417;28;20122;-64
2021/12/13 02:12:13;;;;;;;46.92;24.42;;;10.50;99.90;;;;;;5099622;27;20058;-64
2021/12/13 02:17:41;;;;;;;49.78;26.63;;;10.50;99.90;;;;;;5098171;27;20043;-64
2021/12/13 02:20:35;;;;;;;45.47;25.13;;;10.50;99.90;;;;;;5097805;28;20397;-64
2021/12/13 02:23:01;;;;;;;44.00;23.17;;;10.50;99.90;;;;;;5094374;28;20047;-64
2021/12/13 02:25:29;;;;;;;41.28;22.77;;;10.50;99.90;;;;;;5096021;28;20089;-64
2021/12/13 02:28:22;;;;;;;47.65;25.45;;;10.50;99.90;;;;;;5099744;27;20111;-64
2021/12/13 02:30:56;;;;;;;45.03;22.90;;;10.50;99.90;;;;;;5097130;28;20040;-64
2021/12/13 02:33:30;;;;;;;46.05;24.52;;;10.50;99.90;;;;;;5096415;28;20046;-64
2021/12/13 02:36:07;;;;;;;46.55;24.08;;;10.50;99.90;;;;;;5098652;28;20401;-64
2021/12/13 02:38:34;;;;;;;48.75;23.80;;;10.50;99.90;;;;;;5098186;28;20114;-65
2021/12/13 02:41:00;;;;;;;43.65;23.75;;;10.50;99.90;;;;;;5130587;27;20126;-64
2021/12/13 02:43:32;;;;;;;44.25;23.23;;;10.50;99.90;;;;;;5096555;28;20058;-65
2021/12/13 02:45:59;;;;;;;45.75;22.92;;;10.50;99.90;;;;;;5097119;28;20035;-64
2021/12/13 02:48:31;;;;;;;40.78;22.77;;;10.50;99.90;;;;;;5128870;27;20032;-64
2021/12/13 02:51:20;;;;;;;41.30;22.35;;;10.50;99.90;;;;;;5096351;28;20043;-64
2021/12/13 02:53:57;;;;;;;46.40;23.90;;;10.50;99.90;;;;;;5094234;28;20460;-64
2021/12/13 02:56:29;;;;;;;44.63;23.10;;;10.50;99.90;;;;;;5098529;28;20039;-64
2021/12/13 02:58:58;;;;;;;36.63;22.92;;;10.50;99.90;;;;;;5097250;28;20040;-64
2021/12/13 03:01:33;;;;;;;44.25;22.83;;;10.50;99.90;;;;;;5097886;28;20039;-64
2021/12/13 03:04:03;;;;;;;41.40;21.85;;;10.50;99.90;;;;;;5134008;27;20047;-64
2021/12/13 03:06:37;;;;;;;40.30;22.52;;;10.50;99.90;;;;;;5130687;27;20048;-64
2021/12/13 03:09:10;;;;;;;31.52;18.40;;;10.50;99.90;;;;;;5102027;28;20040;-64
2021/12/13 03:11:36;;;;;;;36.90;20.83;;;10.50;99.90;;;;;;5101031;27;20044;-64
2021/12/13 03:14:19;;;;;;;35.97;20.17;;;10.50;99.90;;;;;;5098358;27;20062;-64
2021/12/13 03:16:50;;;;;;;28.20;17.65;;;10.50;99.90;;;;;;5102303;27;20031;-64
2021/12/13 03:19:31;;;;;;;33.58;19.98;;;10.50;99.90;;;;;;5101312;27;20048;-64
2021/12/13 03:22:34;;;;;;;37.03;18.80;;;10.40;99.90;;;;;;5105406;27;20097;-64
2021/12/13 03:25:15;;;;;;;32.63;18.60;;;10.40;99.90;;;;;;5099495;27;20047;-64
2021/12/13 03:28:02;;;;;;;26.92;17.15;;;10.40;99.90;;;;;;5100598;27;20123;-64
2021/12/13 03:30:39;;;;;;;34.85;18.25;;;10.40;99.90;;;;;;5135306;27;20085;-64
2021/12/13 03:33:10;;;;;;;28.25;17.48;;;10.40;99.90;;;;;;5137825;27;20040;-64
2021/12/13 03:35:51;;;;;;;35.97;17.67;;;10.40;99.90;;;;;;5103206;27;20442;-64
2021/12/13 03:38:25;;;;;;;31.73;18.17;;;10.30;99.90;;;;;;5103019;27;20131;-64
2021/12/13 03:40:51;;;;;;;28.38;16.30;;;10.30;99.90;;;;;;5106652;27;20062;-64
2021/12/13 03:43:26;;;;;;;26.70;15.52;;;10.30;99.90;;;;;;5105739;27;20996;-64
2021/12/13 03:45:55;;;;;;;26.33;15.20;;;10.20;99.90;;;;;;5107628;27;20043;-64
2021/12/13 03:48:24;;;;;;;32.83;17.08;;;10.20;99.90;;;;;;5104498;27;20046;-64
2021/12/13 03:50:55;;;;;;;33.55;14.35;;;10.20;99.90;;;;;;5107789;27;20051;-64
2021/12/13 03:53:26;;;;;;;31.45;14.63;;;10.20;99.90;;;;;;5104524;27;20247;-64
2021/12/13 03:56:02;;;;;;;26.98;14.48;;;10.20;99.90;;;;;;5104881;27;20114;-64
2021/12/13 03:58:32;;;;;;;28.02;13.55;;;10.10;99.90;;;;;;5109085;27;20039;-64
2021/12/13 04:01:16;;;;;;;27.33;15.30;;;10.20;99.90;;;;;;5139033;27;20039;-64
2021/12/13 04:03:43;;;;;;;20.90;12.73;;;10.10;99.90;;;;;;5103368;27;20469;-64
2021/12/13 04:06:14;;;;;;;17.63;11.40;;;10.10;99.90;;;;;;5103244;27;20092;-64
2021/12/13 04:08:42;;;;;;;21.10;11.80;;;10.00;99.90;;;;;;5103448;27;20039;-64
2021/12/13 04:11:10;;;;;;;20.60;11.43;;;10.00;99.90;;;;;;5104006;27;21069;-64
2021/12/13 04:13:45;;;;;;;19.92;11.35;;;10.00;99.90;;;;;;5104932;28;20046;-64
2021/12/13 04:16:30;;;;;;;16.95;11.43;;;10.00;99.90;;;;;;5106234;27;20039;-64
2021/12/13 04:19:20;;;;;;;20.75;11.48;;;10.00;99.90;;;;;;5105663;27;20031;-64
2021/12/13 04:21:49;;;;;;;18.92;11.60;;;10.00;99.90;;;;;;5143346;27;20122;-64
2021/12/13 04:24:40;;;;;;;18.63;11.20;;;10.00;99.90;;;;;;5104851;27;20043;-64
2021/12/13 04:27:21;;;;;;;17.70;11.27;;;9.90;99.90;;;;;;5101511;27;20059;-64
2021/12/13 04:29:50;;;;;;;22.05;10.88;;;9.90;99.90;;;;;;5134660;27;20551;-64
2021/12/13 04:32:35;;;;;;;19.60;10.65;;;9.90;99.90;;;;;;5107164;27;20048;-64
2021/12/13 04:35:08;;;;;;;21.27;9.98;;;9.90;99.90;;;;;;5102838;27;20439;-64
2021/12/13 04:37:38;;;;;;;18.83;10.55;;;9.90;99.90;;;;;;5105090;28;20122;-64
2021/12/13 04:40:16;;;;;;;16.23;9.77;;;9.80;99.90;;;;;;5134581;27;20444;-64
2021/12/13 04:42:42;;;;;;;17.25;10.38;;;9.70;99.90;;;;;;5102689;27;20040;-64
2021/12/13 04:45:15;;;;;;;19.15;9.82;;;9.80;99.90;;;;;;5102964;27;20051;-64
2021/12/13 04:48:04;;;;;;;17.80;9.50;;;9.70;99.90;;;;;;5104216;27;20032;-64
2021/12/13 04:50:39;;;;;;;19.80;10.30;;;9.70;99.90;;;;;;5103149;28;20055;-64
2021/12/13 04:53:05;;;;;;;20.23;9.82;;;9.70;99.90;;;;;;5103178;27;20084;-64
2021/12/13 04:55:35;;;;;;;17.80;9.82;;;9.80;99.90;;;;;;5107405;27;20031;-64
2021/12/13 04:58:07;;;;;;;18.05;9.38;;;9.70;99.90;;;;;;5103786;27;20054;-64
2021/12/13 05:00:36;;;;;;;19.00;10.05;;;9.80;99.90;;;;;;5136639;27;20054;-64
2021/12/13 05:03:05;;;;;;;15.43;10.00;;;9.70;99.90;;;;;;5102128;28;20044;-64
2021/12/13 05:05:34;;;;;;;17.42;11.15;;;9.70;99.90;;;;;;5104382;27;20095;-64
2021/12/13 05:07:59;;;;;;;17.83;11.57;;;9.80;99.90;;;;;;5102365;27;20036;-64
2021/12/13 05:10:26;;;;;;;15.60;11.00;;;9.70;99.90;;;;;;5103162;27;20040;-64
2021/12/13 05:13:10;;;;;;;18.15;11.50;;;9.70;99.90;;;;;;5104384;27;20044;-64
2021/12/13 05:15:50;;;;;;;16.15;10.75;;;9.70;99.90;;;;;;5104680;28;20089;-64
2021/12/13 05:18:21;;;;;;;20.40;11.10;;;9.70;99.90;;;;;;5108003;27;20724;-64
2021/12/13 05:20:48;;;;;;;18.23;11.05;;;9.70;99.90;;;;;;5102295;27;20519;-64
2021/12/13 05:23:20;;;;;;;14.45;10.25;;;9.70;99.90;;;;;;5104942;27;20055;-64
2021/12/13 05:25:54;;;;;;;20.02;10.75;;;9.70;99.90;;;;;;5130111;27;20686;-64
2021/12/13 05:28:44;;;;;;;17.90;11.20;;;9.70;99.90;;;;;;5101155;27;20040;-64
2021/12/13 05:31:16;;;;;;;17.10;10.82;;;9.70;99.90;;;;;;5101561;28;20044;-64
2021/12/13 05:33:58;;;;;;;15.05;9.50;;;9.70;99.90;;;;;;5098615;27;20039;-64
2021/12/13 05:36:27;;;;;;;16.05;10.68;;;9.70;99.90;;;;;;5102779;28;20039;-64
2021/12/13 05:39:11;;;;;;;15.07;9.43;;;9.70;99.90;;;;;;5101265;27;20358;-64
2021/12/13 05:41:40;;;;;;;14.95;9.27;;;9.70;99.90;;;;;;5101318;28;20151;-64
2021/12/13 05:44:10;;;;;;;15.00;8.50;;;9.70;99.90;;;;;;5099407;28;20613;-64
2021/12/13 05:46:41;;;;;;;13.23;8.10;;;9.70;99.90;;;;;;5101130;27;20158;-64
2021/12/13 05:49:52;;;;;;;11.75;7.72;;;9.70;99.90;;;;;;5103795;27;20048;-64
2021/12/13 05:52:24;;;;;;;14.38;8.73;;;9.70;99.90;;;;;;5084526;28;20082;-64
2021/12/13 05:54:53;;;;;;;11.10;7.22;;;9.70;99.90;;;;;;5099525;27;20541;-64
2021/12/13 05:57:29;;;;;;;10.07;7.68;;;9.70;99.90;;;;;;5101047;28;20441;-64
2021/12/13 06:00:05;;;;;;;11.65;8.55;;;9.70;99.90;;;;;;5103565;27;20070;-64
2021/12/13 06:03:05;;;;;;;12.32;8.13;;;9.70;99.90;;;;;;5102188;28;20044;-64
2021/12/13 06:05:36;;;;;;;11.02;8.77;;;9.70;99.90;;;;;;5134034;27;20079;-65
2021/12/13 06:08:17;;;;;;;10.48;9.05;;;9.70;99.90;;;;;;5103730;27;20594;-64
2021/12/13 06:10:46;;;;;;;15.38;9.35;;;9.70;99.90;;;;;;5102501;27;20040;-64
2021/12/13 06:13:23;;;;;;;18.40;8.95;;;9.70;99.90;;;;;;5097079;28;20051;-64
2021/12/13 06:15:50;;;;;;;12.48;8.85;;;9.70;99.90;;;;;;5096608;28;20044;-64
2021/12/13 06:18:23;;;;;;;19.77;10.07;;;9.70;99.90;;;;;;5100047;27;20044;-64
2021/12/13 06:21:22;;;;;;;14.13;9.18;;;9.70;99.90;;;;;;5098618;28;20036;-65
2021/12/13 06:23:48;;;;;;;14.77;10.00;;;9.70;99.90;;;;;;5094513;28;20052;-64
2021/12/13 06:26:14;;;;;;;12.95;9.23;;;9.70;99.90;;;;;;5100302;27;20123;-64
2021/12/13 06:28:53;;;;;;;17.52;10.20;;;9.70;99.90;;;;;;5099514;28;20028;-64
2021/12/13 06:31:21;;;;;;;13.65;9.63;;;9.70;99.90;;;;;;5100555;28;20527;-64
2021/12/13 06:33:54;;;;;;;17.33;9.93;;;9.70;99.90;;;;;;5103013;28;20039;-64
2021/12/13 06:36:29;;;;;;;14.65;10.98;;;9.60;99.90;;;;;;5103680;28;20071;-65
2021/12/13 06:39:04;;;;;;;16.58;11.52;;;9.70;99.90;;;;;;5105363;28;20043;-64
2021/12/13 06:41:32;;;;;;;16.40;11.35;;;9.70;99.90;;;;;;5090259;28;20139;-64
2021/12/13 06:44:02;;;;;;;16.08;11.00;;;9.70;99.90;;;;;;5101934;28;20047;-64
2021/12/13 06:46:32;;;;;;;16.35;11.55;;;9.60;99.90;;;;;;5104127;28;20489;-64
2021/12/13 06:49:16;;;;;;;15.57;11.82;;;9.60;99.90;;;;;;5101332;28;20036;-64
2021/12/13 06:51:45;;;;;;;14.43;12.32;;;9.70;99.90;;;;;;5103325;28;20109;-65
2021/12/13 06:54:15;;;;;;;21.08;12.75;;;9.60;99.90;;;;;;5101735;28;20134;-64
2021/12/13 06:56:43;;;;;;;13.93;11.95;;;9.60;99.90;;;;;;5104835;28;20044;-64
2021/12/13 06:59:16;;;;;;;19.27;14.07;;;9.60;99.90;;;;;;5102274;28;20374;-64
2021/12/13 07:01:42;;;;;;;19.35;14.93;;;9.70;99.90;;;;;;5126979;27;20059;-64
2021/12/13 07:04:11;;;;;;;24.45;15.00;;;9.60;99.90;;;;;;5097562;28;20044;-64
2021/12/13 07:06:38;;;;;;;21.48;14.65;;;9.70;99.90;;;;;;5097811;28;20028;-64
2021/12/13 07:09:14;;;;;;;20.25;15.73;;;9.60;99.90;;;;;;5095823;28;20054;-64
2021/12/13 07:11:54;;;;;;;20.77;15.35;;;9.60;99.90;;;;;;5096829;28;20035;-65
2021/12/13 07:14:36;;;;;;;23.60;15.52;;;9.60;99.90;;;;;;5095660;28;20222;-64
2021/12/13 07:17:14;;;;;;;18.40;15.57;;;9.60;99.90;;;;;;5097902;28;20051;-64
2021/12/13 07:19:43;;;;;;;21.23;15.45;;;9.60;99.90;;;;;;5099039;28;20481;-64
2021/12/13 07:22:09;;;;;;;20.55;15.98;;;9.60;99.90;;;;;;5097549;28;20750;-64
2021/12/13 07:24:42;;;;;;;21.70;16.67;;;9.70;99.90;;;;;;5097684;28;20046;-64
2021/12/13 07:27:12;;;;;;;23.00;17.45;;;9.70;99.90;;;;;;5098719;28;20040;-64
2021/12/13 07:29:53;;;;;;;22.30;17.58;;;9.70;99.90;;;;;;5097017;28;20474;-64
2021/12/13 07:32:21;;;;;;;22.65;17.63;;;9.70;99.90;;;;;;5101889;28;20123;-64
2021/12/13 07:35:10;;;;;;;22.08;16.98;;;9.70;99.90;;;;;;5097892;28;20130;-64
2021/12/13 07:37:56;;;;;;;26.17;18.30;;;9.70;99.90;;;;;;5133669;27;20485;-64
2021/12/13 07:40:31;;;;;;;29.48;18.38;;;9.70;99.90;;;;;;5100430;28;20048;-64
2021/12/13 07:43:04;;;;;;;23.20;19.17;;;9.60;99.90;;;;;;5130994;27;20043;-64
2021/12/13 07:46:02;;;;;;;24.30;18.77;;;9.60;99.90;;;;;;5099431;28;20088;-64
2021/12/13 07:48:36;;;;;;;27.75;20.05;;;9.60;99.90;;;;;;5096763;28;20445;-64
2021/12/13 07:51:11;;;;;;;23.95;20.25;;;9.70;99.90;;;;;;5103443;27;20512;-64
2021/12/13 07:53:44;;;;;;;28.03;21.27;;;9.70;99.90;;;;;;5100171;27;20074;-64
2021/12/13 07:56:13;;;;;;;26.27;20.70;;;9.70;99.90;;;;;;5104813;27;20801;-64
2021/12/13 07:58:46;;;;;;;27.40;21.30;;;9.70;99.90;;;;;;5103487;28;20120;-64
2021/12/13 08:01:26;;;;;;;30.67;23.35;;;9.70;99.90;;;;;;5133419;27;20055;-64
2021/12/13 08:04:18;;;;;;;26.05;20.35;;;9.70;99.90;;;;;;5101680;27;20099;-64
2021/12/13 08:06:53;;;;;;;26.73;21.27;;;9.70;99.90;;;;;;5105279;27;20032;-64
2021/12/13 08:09:23;;;;;;;25.52;21.17;;;9.70;99.90;;;;;;5100778;27;20485;-64
2021/12/13 08:11:54;;;;;;;25.95;21.00;;;9.70;99.90;;;;;;5106589;27;20046;-64
2021/12/13 08:14:47;;;;;;;27.00;22.23;;;9.70;99.90;;;;;;5101833;27;20099;-64
2021/12/13 08:17:31;;;;;;;25.70;22.50;;;9.70;99.90;;;;;;5104865;27;20518;-64
2021/12/13 08:20:04;;;;;;;25.60;22.70;;;9.70;99.90;;;;;;5101995;27;20043;-64
2021/12/13 08:22:30;;;;;;;30.02;22.50;;;9.70;99.90;;;;;;5107985;27;20043;-64
2021/12/13 08:25:02;;;;;;;27.30;22.52;;;9.70;99.90;;;;;;5104057;27;20079;-64
2021/12/13 08:27:32;;;;;;;29.45;24.85;;;9.70;99.90;;;;;;5106436;27;20159;-64
2021/12/13 08:30:07;;;;;;;28.42;23.88;;;9.70;99.90;;;;;;5103809;27;20074;-64
2021/12/13 08:32:33;;;;;;;35.60;24.73;;;9.70;99.90;;;;;;5104609;28;20075;-64
2021/12/13 08:35:00;;;;;;;28.10;25.08;;;9.70;99.90;;;;;;5101486;27;20071;-64
2021/12/13 08:37:30;;;;;;;27.05;24.10;;;9.60;99.90;;;;;;5087308;28;20071;-64
2021/12/13 08:40:08;;;;;;;29.15;24.25;;;9.60;99.90;;;;;;5102230;27;20041;-63
2021/12/13 08:42:39;;;;;;;30.25;24.42;;;9.70;99.90;;;;;;5100184;27;20082;-64
2021/12/13 08:45:16;;;;;;;27.98;23.70;;;9.70;99.90;;;;;;5101557;27;20046;-64
2021/12/13 08:47:52;;;;;;;31.10;24.33;;;9.70;99.90;;;;;;5099817;27;20067;-64
2021/12/13 08:50:41;;;;;;;26.75;23.67;;;9.70;99.90;;;;;;5099853;27;20078;-64
2021/12/13 08:53:29;;;;;;;27.20;24.00;;;9.60;99.90;;;;;;5101881;28;20055;-64
2021/12/13 08:56:04;;;;;;;28.30;23.10;;;9.60;99.90;;;;;;5091055;28;20090;-64
2021/12/13 08:58:34;;;;;;;24.40;21.85;;;9.60;99.90;;;;;;5099362;27;20139;-64
2021/12/13 09:01:03;;;;;;;26.90;21.10;;;9.70;99.90;;;;;;5105000;27;20048;-64
2021/12/13 09:03:33;;;;;;;28.67;23.05;;;9.70;99.90;;;;;;5101654;27;20473;-64
2021/12/13 09:06:02;;;;;;;24.35;21.75;;;9.70;99.90;;;;;;5099794;27;20048;-64
2021/12/13 09:08:48;;;;;;;29.92;23.05;;;9.70;99.90;;;;;;5101963;27;20059;-64
2021/12/13 09:11:35;;;;;;;24.90;20.05;;;9.70;99.90;;;;;;5100775;27;20042;-64
2021/12/13 09:14:11;;;;;;;23.58;21.05;;;9.70;99.90;;;;;;5129966;27;20062;-64
2021/12/13 09:17:16;;;;;;;24.58;20.17;;;9.70;99.90;;;;;;5101760;28;20075;-64
2021/12/13 09:19:47;;;;;;;28.75;21.20;;;9.70;99.90;;;;;;5097885;27;20058;-64
2021/12/13 09:22:57;;;;;;;23.48;21.00;;;9.70;99.90;;;;;;5102843;28;20838;-64
2021/12/13 09:25:32;;;;;;;22.55;19.85;;;9.80;99.90;;;;;;5099226;27;20110;-64
2021/12/13 09:28:05;;;;;;;27.67;21.50;;;9.70;99.90;;;;;;5100923;27;20032;-64
2021/12/13 09:30:57;;;;;;;22.05;19.08;;;9.80;99.90;;;;;;5102690;28;20085;-64
2021/12/13 09:33:28;;;;;;;24.80;20.42;;;9.80;99.90;;;;;;5099369;27;20726;-64
2021/12/13 09:36:03;;;;;;;23.10;19.70;;;9.80;99.90;;;;;;5097460;28;20042;-64
2021/12/13 09:38:37;;;;;;;21.07;18.93;;;9.90;99.90;;;;;;5101710;28;20040;-64
2021/12/13 09:41:11;;;;;;;21.88;19.02;;;9.90;99.90;;;;;;5099972;27;20036;-64
2021/12/13 09:43:46;;;;;;;24.55;19.83;;;9.90;99.90;;;;;;5102882;27;20400;-64
2021/12/13 09:46:16;;;;;;;22.48;18.35;;;9.90;99.90;;;;;;5097188;28;20079;-64
2021/12/13 09:48:48;;;;;;;22.38;17.77;;;10.20;99.90;;;;;;5100783;27;20539;-64
2021/12/13 09:51:21;;;;;;;19.40;16.55;;;9.90;99.90;;;;;;5096282;27;20084;-64
2021/12/13 09:53:53;;;;;;;21.00;17.90;;;9.90;99.90;;;;;;5125775;27;20047;-64
2021/12/13 09:56:22;;;;;;;21.15;17.73;;;9.90;99.90;;;;;;5095771;28;20135;-64
2021/12/13 09:58:59;;;;;;;20.50;17.45;;;9.90;99.90;;;;;;5097525;27;20089;-64
2021/12/13 10:01:32;;;;;;;21.05;17.45;;;9.90;99.90;;;;;;5097144;28;20428;-64
2021/12/13 10:04:06;;;;;;;23.80;18.02;;;10.00;99.90;;;;;;5094127;27;20538;-64
2021/12/13 10:06:40;;;;;;;21.42;17.10;;;9.90;99.90;;;;;;5097342;27;20044;-64
2021/12/13 10:09:12;;;;;;;20.88;16.77;;;10.00;99.90;;;;;;5099351;27;20063;-64
2021/12/13 10:12:15;;;;;;;22.73;16.92;;;10.00;99.90;;;;;;5131561;27;20529;-64
2021/12/13 10:14:46;;;;;;;18.77;15.73;;;10.00;99.90;;;;;;5100252;28;20071;-64
2021/12/13 10:17:14;;;;;;;20.90;16.48;;;10.00;99.90;;;;;;5132261;27;20054;-64
2021/12/13 10:19:47;;;;;;;21.13;17.65;;;10.00;99.90;;;;;;5101318;28;20051;-64
2021/12/13 10:22:16;;;;;;;18.48;16.45;;;10.00;99.90;;;;;;5103639;27;20051;-64
2021/12/13 10:24:56;;;;;;;23.02;16.38;;;10.00;99.90;;;;;;5096875;27;20500;-64
2021/12/13 10:27:23;;;;;;;21.40;16.50;;;10.10;99.90;;;;;;5099792;28;20083;-64
2021/12/13 10:29:55;;;;;;;20.70;15.13;;;10.00;99.90;;;;;;5104327;28;20126;-64
2021/12/13 10:32:41;;;;;;;19.75;16.15;;;10.10;99.90;;;;;;5098306;28;20043;-65
2021/12/13 10:35:13;;;;;;;22.83;16.20;;;10.10;99.90;;;;;;5098065;28;20035;-64
2021/12/13 10:37:44;;;;;;;21.77;15.95;;;10.10;99.90;;;;;;5097700;28;20031;-64
2021/12/13 10:40:21;;;;;;;23.23;16.73;;;10.10;99.90;;;;;;5131636;27;20066;-64
2021/12/13 10:42:57;;;;;;;21.40;15.55;;;10.10;99.90;;;;;;5131127;27;20479;-64
2021/12/13 10:45:28;;;;;;;16.98;15.15;;;10.10;99.90;;;;;;5098386;28;20055;-64
2021/12/13 10:47:56;;;;;;;23.88;15.80;;;10.10;99.90;;;;;;5101604;28;20031;-64
2021/12/13 10:50:35;;;;;;;20.60;16.13;;;10.10;99.90;;;;;;5097342;28;20115;-64
2021/12/13 10:53:04;;;;;;;20.67;16.23;;;10.10;99.90;;;;;;5100661;28;20082;-64
2021/12/13 10:55:36;;;;;;;19.63;15.65;;;10.20;99.90;;;;;;5098836;28;20044;-64
2021/12/13 10:58:03;;;;;;;20.17;14.90;;;10.20;99.90;;;;;;5099239;28;20092;-64
2021/12/13 11:00:38;;;;;;;19.52;16.15;;;10.20;99.90;;;;;;5098977;28;20036;-64
2021/12/13 11:03:15;;;;;;;18.40;15.73;;;10.30;99.90;;;;;;5097991;28;20583;-64
2021/12/13 11:05:42;;;;;;;18.27;15.65;;;10.30;99.90;;;;;;5099089;28;20401;-64
2021/12/13 11:08:10;;;;;;;18.25;15.75;;;10.30;99.90;;;;;;5129805;27;20032;-64
2021/12/13 11:11:07;;;;;;;24.25;16.35;;;10.20;99.90;;;;;;5098276;28;20859;-64
2021/12/13 11:13:36;;;;;;;22.88;15.95;;;10.30;99.90;;;;;;5081039;28;20039;-64
2021/12/13 11:16:26;;;;;;;19.63;15.30;;;10.30;99.90;;;;;;5097423;28;20047;-64
2021/12/13 11:18:52;;;;;;;21.80;15.55;;;10.20;99.90;;;;;;5099101;28;20062;-64
2021/12/13 11:21:30;;;;;;;18.00;14.32;;;10.20;99.90;;;;;;5100612;28;20522;-64
2021/12/13 11:23:56;;;;;;;20.70;16.15;;;10.30;99.90;;;;;;5099484;27;20040;-64
2021/12/13 11:26:25;;;;;;;20.13;15.05;;;10.30;99.90;;;;;;5102443;28;20765;-64
2021/12/13 11:28:52;;;;;;;21.33;15.75;;;10.20;99.90;;;;;;5101537;27;20478;-64
2021/12/13 11:31:47;;;;;;;16.90;14.23;;;10.30;99.90;;;;;;5101050;27;20047;-64
2021/12/13 11:34:18;;;;;;;20.33;15.52;;;10.30;99.90;;;;;;5101166;28;20079;-64
2021/12/13 11:37:11;;;;;;;21.55;15.43;;;10.20;99.90;;;;;;5105204;27;20039;-65
2021/12/13 11:40:15;;;;;;;19.33;15.02;;;10.20;99.90;;;;;;5104713;27;20124;-64
2021/12/13 11:43:13;;;;;;;20.58;14.95;;;10.20;99.90;;;;;;5101406;27;20050;-64
2021/12/13 11:46:00;;;;;;;19.70;15.05;;;10.30;99.90;;;;;;5099344;27;20083;-64
2021/12/13 11:48:44;;;;;;;19.55;14.88;;;10.30;99.90;;;;;;5089312;28;20091;-64
2021/12/13 11:51:34;;;;;;;18.55;14.93;;;10.30;99.90;;;;;;5134835;27;20052;-64
2021/12/13 11:54:38;;;;;;;18.08;15.10;;;10.30;99.90;;;;;;5098816;27;20058;-64
2021/12/13 11:57:37;;;;;;;18.92;14.88;;;10.30;99.90;;;;;;5100799;28;20545;-64
2021/12/13 12:00:24;;;;;;;21.42;15.15;;;10.30;99.90;;;;;;5132089;27;20047;-64
2021/12/13 12:03:25;;;;;;;20.02;14.40;;;10.30;99.90;;;;;;5102144;27;20038;-64
2021/12/13 12:06:13;;;;;;;17.77;13.68;;;10.30;99.90;;;;;;5098937;28;20596;-64
2021/12/13 12:08:46;;;;;;;19.73;15.32;;;10.30;99.90;;;;;;5103060;27;20044;-64
2021/12/13 12:11:53;;;;;;;18.88;15.15;;;10.30;99.90;;;;;;5103534;28;20553;-64
2021/12/13 12:14:24;;;;;;;22.70;15.02;;;10.30;99.90;;;;;;5060646;28;20083;-64
2021/12/13 12:16:53;;;;;;;19.85;14.38;;;10.30;99.90;;;;;;5100110;27;20412;-64
2021/12/13 12:19:28;;;;;;;24.15;15.73;;;10.30;99.90;;;;;;5103324;28;20040;-64
2021/12/13 12:22:06;;;;;;;19.67;14.97;;;10.30;99.90;;;;;;5100914;27;20534;-64
2021/12/13 12:24:48;;;;;;;19.42;15.68;;;10.30;99.90;;;;;;5098017;27;20355;-64
2021/12/13 12:27:33;;;;;;;23.48;15.98;;;10.30;99.90;;;;;;5102652;27;20048;-64
2021/12/13 12:30:11;;;;;;;20.00;15.50;;;10.30;99.90;;;;;;5101120;28;20478;-64
2021/12/13 12:32:41;;;;;;;19.17;15.00;;;10.30;99.90;;;;;;5097964;27;20080;-64
2021/12/13 12:35:16;;;;;;;19.45;14.73;;;10.30;99.90;;;;;;5097328;27;20043;-64
2021/12/13 12:37:57;;;;;;;22.70;15.23;;;10.30;99.90;;;;;;5100606;27;20134;-64
2021/12/13 12:40:58;;;;;;;18.83;15.48;;;10.30;99.90;;;;;;5100476;27;20185;-65
2021/12/13 12:43:26;;;;;;;18.40;14.95;;;10.30;99.90;;;;;;5095862;27;20075;-64
2021/12/13 12:45:57;;;;;;;18.33;14.95;;;10.40;99.90;;;;;;5097786;27;20040;-64
2021/12/13 12:48:28;;;;;;;19.92;15.88;;;10.40;99.90;;;;;;5097567;27;20062;-64
2021/12/13 12:51:07;;;;;;;22.70;15.77;;;10.50;99.90;;;;;;5100705;27;20074;-64
2021/12/13 12:53:46;;;;;;;18.02;14.68;;;10.50;99.90;;;;;;5099321;27;20114;-64
2021/12/13 12:56:18;;;;;;;18.27;14.82;;;10.50;99.90;;;;;;5100549;28;20050;-64
2021/12/13 12:59:04;;;;;;;23.10;14.98;;;10.50;99.90;;;;;;5100121;27;20040;-64
2021/12/13 13:01:35;;;;;;;19.48;15.57;;;10.50;99.90;;;;;;5131777;27;20047;-64
2021/12/13 13:04:30;;;;;;;19.35;14.98;;;10.60;99.90;;;;;;5133311;27;20090;-64
2021/12/13 13:06:57;;;;;;;22.10;14.68;;;10.60;99.90;;;;;;5102553;28;20051;-64
2021/12/13 13:09:39;;;;;;;17.85;14.32;;;10.60;99.90;;;;;;5101691;27;20047;-65
2021/12/13 13:12:06;;;;;;;17.33;14.75;;;10.60;99.90;;;;;;5105944;27;20441;-64
2021/12/13 13:14:32;;;;;;;18.13;14.68;;;10.60;99.90;;;;;;5100367;28;20047;-64
2021/12/13 13:17:03;;;;;;;22.10;14.65;;;10.50;99.90;;;;;;5131223;27;20046;-64
2021/12/13 13:19:36;;;;;;;21.25;15.32;;;10.60;99.90;;;;;;5103023;28;20049;-65
2021/12/13 13:22:25;;;;;;;21.05;15.32;;;10.60;99.90;;;;;;5104113;27;20048;-65
2021/12/13 13:24:55;;;;;;;21.25;14.88;;;10.60;99.90;;;;;;5090304;28;20056;-64